sensor_id;sensor_type;location;lat;lon;timestamp;pressure;altitude;pressure_sealevel;temperature;humidity
1480;BME280;732;51.698;4.886;2023-04-20T00:02:21;102467.31;;;1.80;55.14
1480;BME280;732;51.698;4.886;2023-04-20T00:04:49;102438.19;;;1.64;55.55
1480;BME280;732;51.698;4.886;2023-04-20T00:07:18;102456.81;;;1.78;55.58
1480;BME280;732;51.698;4.886;2023-04-20T00:09:47;102450.66;;;1.78;55.37
1480;BME280;732;51.698;4.886;2023-04-20T00:12:16;102447.09;;;1.79;54.22
1480;BME280;732;51.698;4.886;2023-04-20T00:14:44;102451.34;;;1.65;53.84
1480;BME280;732;51.698;4.886;2023-04-20T00:17:15;102456.91;;;1.61;54.94
1480;BME280;732;51.698;4.886;2023-04-20T00:19:43;102450.75;;;1.60;55.53
1480;BME280;732;51.698;4.886;2023-04-20T00:22:12;102451.19;;;1.69;55.25
1480;BME280;732;51.698;4.886;2023-04-20T00:24:40;102415.50;;;1.44;55.68
1480;BME280;732;51.698;4.886;2023-04-20T00:27:09;102444.19;;;1.67;55.41
1480;BME280;732;51.698;4.886;2023-04-20T00:29:38;102437.16;;;1.66;55.65
1480;BME280;732;51.698;4.886;2023-04-20T00:32:07;102453.13;;;1.65;55.89
1480;BME280;732;51.698;4.886;2023-04-20T00:34:39;102438.63;;;1.56;56.46
1480;BME280;732;51.698;4.886;2023-04-20T00:37:07;102430.69;;;1.56;56.60
1480;BME280;732;51.698;4.886;2023-04-20T00:39:35;102435.19;;;1.54;55.92
1480;BME280;732;51.698;4.886;2023-04-20T00:42:04;102403.25;;;1.25;56.96
1480;BME280;732;51.698;4.886;2023-04-20T00:44:33;102382.53;;;1.17;56.62
1480;BME280;732;51.698;4.886;2023-04-20T00:47:03;102421.19;;;1.36;56.77
1480;BME280;732;51.698;4.886;2023-04-20T00:49:32;102398.22;;;1.21;56.49
1480;BME280;732;51.698;4.886;2023-04-20T00:52:00;102380.97;;;1.13;56.15
1480;BME280;732;51.698;4.886;2023-04-20T00:54:30;102422.13;;;1.35;56.35
1480;BME280;732;51.698;4.886;2023-04-20T00:56:59;102413.69;;;1.28;56.02
1480;BME280;732;51.698;4.886;2023-04-20T00:59:28;102400.94;;;1.19;56.45
1480;BME280;732;51.698;4.886;2023-04-20T01:01:56;102393.34;;;1.13;56.68
1480;BME280;732;51.698;4.886;2023-04-20T01:04:27;102405.75;;;1.28;56.63
1480;BME280;732;51.698;4.886;2023-04-20T01:06:57;102397.88;;;1.27;56.18
1480;BME280;732;51.698;4.886;2023-04-20T01:09:30;102384.13;;;1.04;56.15
1480;BME280;732;51.698;4.886;2023-04-20T01:12:01;102392.31;;;1.15;56.25
1480;BME280;732;51.698;4.886;2023-04-20T01:14:29;102393.38;;;1.29;55.64
1480;BME280;732;51.698;4.886;2023-04-20T01:16:57;102377.00;;;1.22;54.16
1480;BME280;732;51.698;4.886;2023-04-20T01:19:27;102360.19;;;1.23;53.29
1480;BME280;732;51.698;4.886;2023-04-20T01:21:55;102373.75;;;1.33;53.88
1480;BME280;732;51.698;4.886;2023-04-20T01:24:27;102360.88;;;1.43;53.48
1480;BME280;732;51.698;4.886;2023-04-20T01:27:00;102357.13;;;1.63;52.92
1480;BME280;732;51.698;4.886;2023-04-20T01:29:28;102353.63;;;1.62;52.75
1480;BME280;732;51.698;4.886;2023-04-20T01:31:57;102344.41;;;1.54;51.39
1480;BME280;732;51.698;4.886;2023-04-20T01:34:25;102344.50;;;1.52;50.93
1480;BME280;732;51.698;4.886;2023-04-20T01:36:56;102341.59;;;1.57;50.77
1480;BME280;732;51.698;4.886;2023-04-20T01:39:29;102325.91;;;1.54;51.85
1480;BME280;732;51.698;4.886;2023-04-20T01:41:57;102337.41;;;1.53;51.69
1480;BME280;732;51.698;4.886;2023-04-20T01:44:28;102316.59;;;1.46;51.13
1480;BME280;732;51.698;4.886;2023-04-20T01:46:59;102279.94;;;1.24;52.08
1480;BME280;732;51.698;4.886;2023-04-20T01:49:27;102267.88;;;1.34;51.28
1480;BME280;732;51.698;4.886;2023-04-20T01:52:01;102326.88;;;1.83;50.55
1480;BME280;732;51.698;4.886;2023-04-20T01:54:30;102246.72;;;1.34;50.56
1480;BME280;732;51.698;4.886;2023-04-20T01:57:00;102315.22;;;1.71;50.57
1480;BME280;732;51.698;4.886;2023-04-20T01:59:37;102318.25;;;1.79;49.09
1480;BME280;732;51.698;4.886;2023-04-20T02:02:06;102278.44;;;1.66;49.75
1480;BME280;732;51.698;4.886;2023-04-20T02:04:35;102293.34;;;1.83;49.99
1480;BME280;732;51.698;4.886;2023-04-20T02:07:03;102266.91;;;1.67;49.43
1480;BME280;732;51.698;4.886;2023-04-20T02:09:32;102277.38;;;1.85;49.88
1480;BME280;732;51.698;4.886;2023-04-20T02:12:01;102311.59;;;1.88;49.95
1480;BME280;732;51.698;4.886;2023-04-20T02:14:30;102279.22;;;1.83;50.13
1480;BME280;732;51.698;4.886;2023-04-20T02:16:58;102298.94;;;1.93;50.65
1480;BME280;732;51.698;4.886;2023-04-20T02:19:29;102302.78;;;1.88;50.56
1480;BME280;732;51.698;4.886;2023-04-20T02:21:57;102253.19;;;1.61;50.60
1480;BME280;732;51.698;4.886;2023-04-20T02:24:28;102295.97;;;1.99;50.84
1480;BME280;732;51.698;4.886;2023-04-20T02:27:08;102260.81;;;1.81;50.37
1480;BME280;732;51.698;4.886;2023-04-20T02:29:38;102286.69;;;2.07;50.50
1480;BME280;732;51.698;4.886;2023-04-20T02:32:15;102280.00;;;2.01;50.77
1480;BME280;732;51.698;4.886;2023-04-20T02:34:43;102264.34;;;1.96;50.85
1480;BME280;732;51.698;4.886;2023-04-20T02:37:12;102255.88;;;1.75;50.83
1480;BME280;732;51.698;4.886;2023-04-20T02:39:45;102279.28;;;1.97;51.22
1480;BME280;732;51.698;4.886;2023-04-20T02:42:15;102265.47;;;1.92;51.47
1480;BME280;732;51.698;4.886;2023-04-20T02:44:45;102242.38;;;1.80;51.66
1480;BME280;732;51.698;4.886;2023-04-20T02:47:13;102275.13;;;1.93;52.42
1480;BME280;732;51.698;4.886;2023-04-20T02:49:42;102272.81;;;2.03;51.92
1480;BME280;732;51.698;4.886;2023-04-20T02:52:12;102272.47;;;2.09;52.20
1480;BME280;732;51.698;4.886;2023-04-20T02:54:40;102259.28;;;2.08;51.96
1480;BME280;732;51.698;4.886;2023-04-20T02:57:14;102270.97;;;2.20;52.59
1480;BME280;732;51.698;4.886;2023-04-20T02:59:42;102238.13;;;2.22;51.93
1480;BME280;732;51.698;4.886;2023-04-20T03:02:22;102243.16;;;2.41;51.36
1480;BME280;732;51.698;4.886;2023-04-20T03:04:54;102260.00;;;2.55;52.23
1480;BME280;732;51.698;4.886;2023-04-20T03:07:24;102245.44;;;2.62;52.13
1480;BME280;732;51.698;4.886;2023-04-20T03:09:54;102251.28;;;2.53;52.36
1480;BME280;732;51.698;4.886;2023-04-20T03:12:38;102242.69;;;2.49;52.89
1480;BME280;732;51.698;4.886;2023-04-20T03:15:38;102238.41;;;2.46;54.13
1480;BME280;732;51.698;4.886;2023-04-20T03:18:21;102248.94;;;2.48;54.41
1480;BME280;732;51.698;4.886;2023-04-20T03:20:54;102255.25;;;2.60;54.09
1480;BME280;732;51.698;4.886;2023-04-20T03:23:22;102237.47;;;2.47;54.07
1480;BME280;732;51.698;4.886;2023-04-20T03:25:51;102243.06;;;2.57;53.84
1480;BME280;732;51.698;4.886;2023-04-20T03:28:34;102241.34;;;2.56;54.59
1480;BME280;732;51.698;4.886;2023-04-20T03:31:05;102211.38;;;2.27;54.42
1480;BME280;732;51.698;4.886;2023-04-20T03:33:33;102239.38;;;2.45;55.34
1480;BME280;732;51.698;4.886;2023-04-20T03:36:02;102233.41;;;2.71;54.79
1480;BME280;732;51.698;4.886;2023-04-20T03:38:31;102206.25;;;2.67;54.47
1480;BME280;732;51.698;4.886;2023-04-20T03:41:00;102214.63;;;2.88;54.67
1480;BME280;732;51.698;4.886;2023-04-20T03:43:30;102227.38;;;3.10;54.58
1480;BME280;732;51.698;4.886;2023-04-20T03:46:09;102222.31;;;3.20;53.98
1480;BME280;732;51.698;4.886;2023-04-20T03:48:39;102209.75;;;3.37;54.20
1480;BME280;732;51.698;4.886;2023-04-20T03:51:12;102197.81;;;3.29;53.93
1480;BME280;732;51.698;4.886;2023-04-20T03:53:44;102215.31;;;3.59;54.01
1480;BME280;732;51.698;4.886;2023-04-20T03:56:13;102212.78;;;3.58;54.23
1480;BME280;732;51.698;4.886;2023-04-20T03:58:42;102198.97;;;3.66;54.07
1480;BME280;732;51.698;4.886;2023-04-20T04:01:15;102135.94;;;3.16;54.22
1480;BME280;732;51.698;4.886;2023-04-20T04:03:46;102196.03;;;3.70;53.80
1480;BME280;732;51.698;4.886;2023-04-20T04:06:19;102194.50;;;3.66;54.03
1480;BME280;732;51.698;4.886;2023-04-20T04:08:47;102159.06;;;3.54;53.78
1480;BME280;732;51.698;4.886;2023-04-20T04:11:16;102162.47;;;3.69;53.53
1480;BME280;732;51.698;4.886;2023-04-20T04:13:48;102186.56;;;3.92;53.69
1480;BME280;732;51.698;4.886;2023-04-20T04:16:18;102179.25;;;3.96;53.33
1480;BME280;732;51.698;4.886;2023-04-20T04:18:50;102132.81;;;3.63;53.43
1480;BME280;732;51.698;4.886;2023-04-20T04:21:20;102175.97;;;3.92;53.21
1480;BME280;732;51.698;4.886;2023-04-20T04:23:54;102177.97;;;3.88;53.22
1480;BME280;732;51.698;4.886;2023-04-20T04:26:36;102173.09;;;3.95;53.43
1480;BME280;732;51.698;4.886;2023-04-20T04:29:08;102162.69;;;3.92;53.87
1480;BME280;732;51.698;4.886;2023-04-20T04:31:38;102165.56;;;3.89;54.15
1480;BME280;732;51.698;4.886;2023-04-20T04:34:13;102146.84;;;3.77;53.67
1480;BME280;732;51.698;4.886;2023-04-20T04:36:45;102156.97;;;3.85;54.16
1480;BME280;732;51.698;4.886;2023-04-20T04:39:21;102157.47;;;3.90;53.53
1480;BME280;732;51.698;4.886;2023-04-20T04:41:57;102158.25;;;3.92;54.14
1480;BME280;732;51.698;4.886;2023-04-20T04:44:33;102148.75;;;3.88;53.72
1480;BME280;732;51.698;4.886;2023-04-20T04:47:03;102117.44;;;3.93;54.31
1480;BME280;732;51.698;4.886;2023-04-20T04:49:33;102140.16;;;4.10;54.05
1480;BME280;732;51.698;4.886;2023-04-20T04:52:04;102136.41;;;4.39;53.24
1480;BME280;732;51.698;4.886;2023-04-20T04:54:32;102139.78;;;4.54;53.56
1480;BME280;732;51.698;4.886;2023-04-20T04:57:02;102090.59;;;4.35;53.10
1480;BME280;732;51.698;4.886;2023-04-20T04:59:32;102135.63;;;4.63;53.03
1480;BME280;732;51.698;4.886;2023-04-20T05:02:00;102137.41;;;4.62;53.39
1480;BME280;732;51.698;4.886;2023-04-20T05:04:33;102130.84;;;4.55;53.70
1480;BME280;732;51.698;4.886;2023-04-20T05:07:02;102082.31;;;4.27;53.56
1480;BME280;732;51.698;4.886;2023-04-20T05:09:30;102121.91;;;4.56;53.24
1480;BME280;732;51.698;4.886;2023-04-20T05:11:59;102113.16;;;4.67;53.93
1480;BME280;732;51.698;4.886;2023-04-20T05:14:29;102117.63;;;4.66;53.53
1480;BME280;732;51.698;4.886;2023-04-20T05:16:57;102113.72;;;4.59;53.76
1480;BME280;732;51.698;4.886;2023-04-20T05:19:26;102093.97;;;4.74;53.30
1480;BME280;732;51.698;4.886;2023-04-20T05:21:55;102090.47;;;4.74;53.14
1480;BME280;732;51.698;4.886;2023-04-20T05:24:23;102106.97;;;4.90;53.12
1480;BME280;732;51.698;4.886;2023-04-20T05:26:52;102113.44;;;4.75;53.60
1480;BME280;732;51.698;4.886;2023-04-20T05:29:20;102107.22;;;4.87;53.31
1480;BME280;732;51.698;4.886;2023-04-20T05:31:48;102100.22;;;4.86;53.79
1480;BME280;732;51.698;4.886;2023-04-20T05:34:19;102092.34;;;4.85;53.32
1480;BME280;732;51.698;4.886;2023-04-20T05:36:51;102067.56;;;4.60;53.49
1480;BME280;732;51.698;4.886;2023-04-20T05:39:21;102097.25;;;4.78;53.67
1480;BME280;732;51.698;4.886;2023-04-20T05:41:52;102112.94;;;4.94;53.87
1480;BME280;732;51.698;4.886;2023-04-20T05:44:21;102114.50;;;4.97;53.35
1480;BME280;732;51.698;4.886;2023-04-20T05:46:50;102110.06;;;4.97;53.60
1480;BME280;732;51.698;4.886;2023-04-20T05:49:21;102108.34;;;4.96;54.09
1480;BME280;732;51.698;4.886;2023-04-20T05:51:49;102107.78;;;5.04;54.36
1480;BME280;732;51.698;4.886;2023-04-20T05:54:21;102094.34;;;5.05;54.23
1480;BME280;732;51.698;4.886;2023-04-20T05:56:49;102090.44;;;4.98;55.04
1480;BME280;732;51.698;4.886;2023-04-20T05:59:17;102099.66;;;5.05;55.01
1480;BME280;732;51.698;4.886;2023-04-20T06:01:48;102099.53;;;5.07;54.77
1480;BME280;732;51.698;4.886;2023-04-20T06:04:16;102094.50;;;5.15;54.93
1480;BME280;732;51.698;4.886;2023-04-20T06:06:47;102092.59;;;5.17;54.75
1480;BME280;732;51.698;4.886;2023-04-20T06:09:18;102085.41;;;5.06;55.17
1480;BME280;732;51.698;4.886;2023-04-20T06:11:53;102094.16;;;5.20;55.11
1480;BME280;732;51.698;4.886;2023-04-20T06:14:21;102084.59;;;5.17;55.21
1480;BME280;732;51.698;4.886;2023-04-20T06:16:49;102084.38;;;5.32;56.03
1480;BME280;732;51.698;4.886;2023-04-20T06:19:19;102082.97;;;5.39;56.30
1480;BME280;732;51.698;4.886;2023-04-20T06:21:47;102053.31;;;5.32;55.68
1480;BME280;732;51.698;4.886;2023-04-20T06:24:15;102058.03;;;5.40;55.70
1480;BME280;732;51.698;4.886;2023-04-20T06:26:43;102073.56;;;5.58;55.47
1480;BME280;732;51.698;4.886;2023-04-20T06:29:13;102071.75;;;5.69;55.31
1480;BME280;732;51.698;4.886;2023-04-20T06:31:41;102063.50;;;5.84;55.20
1480;BME280;732;51.698;4.886;2023-04-20T06:34:09;102056.59;;;6.04;54.84
1480;BME280;732;51.698;4.886;2023-04-20T06:36:41;102049.22;;;6.08;55.01
1480;BME280;732;51.698;4.886;2023-04-20T06:39:09;102051.25;;;6.15;54.94
1480;BME280;732;51.698;4.886;2023-04-20T06:41:38;102049.06;;;6.43;54.21
1480;BME280;732;51.698;4.886;2023-04-20T06:44:06;102039.69;;;6.49;53.98
1480;BME280;732;51.698;4.886;2023-04-20T06:46:35;102030.38;;;6.55;53.70
1480;BME280;732;51.698;4.886;2023-04-20T06:49:05;102046.53;;;6.74;53.71
1480;BME280;732;51.698;4.886;2023-04-20T06:51:33;102047.13;;;6.99;53.68
1480;BME280;732;51.698;4.886;2023-04-20T06:54:01;102052.22;;;7.23;53.17
1480;BME280;732;51.698;4.886;2023-04-20T06:56:29;102044.00;;;7.15;52.53
1480;BME280;732;51.698;4.886;2023-04-20T06:59:00;102054.34;;;7.51;52.98
1480;BME280;732;51.698;4.886;2023-04-20T07:01:30;102053.19;;;7.74;52.02
1480;BME280;732;51.698;4.886;2023-04-20T07:04:00;102047.22;;;7.92;51.44
1480;BME280;732;51.698;4.886;2023-04-20T07:06:30;102048.75;;;7.94;50.17
1480;BME280;732;51.698;4.886;2023-04-20T07:08:59;102058.28;;;8.18;51.01
1480;BME280;732;51.698;4.886;2023-04-20T07:11:27;102049.88;;;8.52;50.45
1480;BME280;732;51.698;4.886;2023-04-20T07:13:55;102054.41;;;8.61;49.82
1480;BME280;732;51.698;4.886;2023-04-20T07:16:24;102057.69;;;8.85;48.89
1480;BME280;732;51.698;4.886;2023-04-20T07:18:52;102052.59;;;8.82;48.34
1480;BME280;732;51.698;4.886;2023-04-20T07:21:21;102045.69;;;8.59;49.67
1480;BME280;732;51.698;4.886;2023-04-20T07:23:49;102043.88;;;8.60;49.56
1480;BME280;732;51.698;4.886;2023-04-20T07:26:20;102049.34;;;8.58;49.86
1480;BME280;732;51.698;4.886;2023-04-20T07:28:51;102003.56;;;8.22;49.39
1480;BME280;732;51.698;4.886;2023-04-20T07:31:19;102041.75;;;8.54;49.12
1480;BME280;732;51.698;4.886;2023-04-20T07:33:47;102042.44;;;8.56;49.86
1480;BME280;732;51.698;4.886;2023-04-20T07:36:17;102036.69;;;8.60;49.79
1480;BME280;732;51.698;4.886;2023-04-20T07:38:47;102027.09;;;8.48;49.67
1480;BME280;732;51.698;4.886;2023-04-20T07:41:15;102007.50;;;8.28;49.09
1480;BME280;732;51.698;4.886;2023-04-20T07:43:43;102037.63;;;8.40;49.78
1480;BME280;732;51.698;4.886;2023-04-20T07:46:19;102041.72;;;8.34;49.88
1480;BME280;732;51.698;4.886;2023-04-20T07:48:48;102037.44;;;8.12;49.91
1480;BME280;732;51.698;4.886;2023-04-20T07:51:19;102037.44;;;8.12;50.36
1480;BME280;732;51.698;4.886;2023-04-20T07:53:51;102047.59;;;8.18;48.96
1480;BME280;732;51.698;4.886;2023-04-20T07:56:20;102028.59;;;8.11;50.15
1480;BME280;732;51.698;4.886;2023-04-20T07:58:50;102039.31;;;8.31;49.50
1480;BME280;732;51.698;4.886;2023-04-20T08:01:22;102031.28;;;8.21;49.57
1480;BME280;732;51.698;4.886;2023-04-20T08:03:53;102024.63;;;8.06;50.09
1480;BME280;732;51.698;4.886;2023-04-20T08:06:22;102026.50;;;8.15;50.38
1480;BME280;732;51.698;4.886;2023-04-20T08:08:54;102039.53;;;8.08;49.82
1480;BME280;732;51.698;4.886;2023-04-20T08:11:22;102041.38;;;8.08;50.58
1480;BME280;732;51.698;4.886;2023-04-20T08:13:52;102029.88;;;8.27;50.30
1480;BME280;732;51.698;4.886;2023-04-20T08:16:27;102032.81;;;8.14;50.92
1480;BME280;732;51.698;4.886;2023-04-20T08:18:55;102024.09;;;8.22;50.94
1480;BME280;732;51.698;4.886;2023-04-20T08:21:25;102028.34;;;8.34;50.52
1480;BME280;732;51.698;4.886;2023-04-20T08:23:56;102002.88;;;8.30;50.37
1480;BME280;732;51.698;4.886;2023-04-20T08:26:26;102022.72;;;8.57;50.54
1480;BME280;732;51.698;4.886;2023-04-20T08:28:57;102017.94;;;8.41;50.26
1480;BME280;732;51.698;4.886;2023-04-20T08:31:28;102014.44;;;8.50;50.24
1480;BME280;732;51.698;4.886;2023-04-20T08:33:56;102019.78;;;8.60;49.99
1480;BME280;732;51.698;4.886;2023-04-20T08:36:24;102010.75;;;8.71;50.45
1480;BME280;732;51.698;4.886;2023-04-20T08:39:06;101986.97;;;8.77;49.73
1480;BME280;732;51.698;4.886;2023-04-20T08:41:36;102002.56;;;9.02;49.41
1480;BME280;732;51.698;4.886;2023-04-20T08:44:05;101987.47;;;9.10;48.72
1480;BME280;732;51.698;4.886;2023-04-20T08:46:36;101971.97;;;9.04;48.60
1480;BME280;732;51.698;4.886;2023-04-20T08:49:11;101972.44;;;9.00;48.47
1480;BME280;732;51.698;4.886;2023-04-20T08:51:39;102000.00;;;9.20;48.94
1480;BME280;732;51.698;4.886;2023-04-20T08:54:10;101992.34;;;9.45;48.71
1480;BME280;732;51.698;4.886;2023-04-20T08:56:42;101984.84;;;9.76;47.76
1480;BME280;732;51.698;4.886;2023-04-20T08:59:10;101972.06;;;9.88;46.99
1480;BME280;732;51.698;4.886;2023-04-20T09:01:40;101995.44;;;10.23;46.36
1480;BME280;732;51.698;4.886;2023-04-20T09:04:20;102000.88;;;10.32;46.09
1480;BME280;732;51.698;4.886;2023-04-20T09:06:55;101994.97;;;10.46;46.05
1480;BME280;732;51.698;4.886;2023-04-20T09:09:24;101984.56;;;10.43;46.63
1480;BME280;732;51.698;4.886;2023-04-20T09:12:00;101973.75;;;10.53;46.15
1480;BME280;732;51.698;4.886;2023-04-20T09:14:29;101965.81;;;10.51;45.66
1480;BME280;732;51.698;4.886;2023-04-20T09:17:02;101986.03;;;9.91;45.64
1480;BME280;732;51.698;4.886;2023-04-20T09:19:31;101985.44;;;9.32;47.04
1480;BME280;732;51.698;4.886;2023-04-20T09:22:03;101988.78;;;8.67;47.98
1480;BME280;732;51.698;4.886;2023-04-20T09:24:35;102005.97;;;8.65;49.24
1480;BME280;732;51.698;4.886;2023-04-20T09:27:14;101985.13;;;8.68;50.04
1480;BME280;732;51.698;4.886;2023-04-20T09:29:43;101988.38;;;8.82;50.36
1480;BME280;732;51.698;4.886;2023-04-20T09:32:21;101982.03;;;8.92;49.55
1480;BME280;732;51.698;4.886;2023-04-20T09:34:51;101987.28;;;9.22;49.68
1480;BME280;732;51.698;4.886;2023-04-20T09:37:19;101945.53;;;8.82;49.32
1480;BME280;732;51.698;4.886;2023-04-20T09:39:58;101981.69;;;9.05;49.48
1480;BME280;732;51.698;4.886;2023-04-20T09:42:27;101944.25;;;8.86;49.75
1480;BME280;732;51.698;4.886;2023-04-20T09:44:59;101981.03;;;8.93;49.74
1480;BME280;732;51.698;4.886;2023-04-20T09:47:34;101946.56;;;8.61;49.53
1480;BME280;732;51.698;4.886;2023-04-20T09:50:03;101968.34;;;8.86;50.29
1480;BME280;732;51.698;4.886;2023-04-20T09:52:51;101967.72;;;9.11;50.13
1480;BME280;732;51.698;4.886;2023-04-20T09:55:23;101927.88;;;9.08;50.71
1480;BME280;732;51.698;4.886;2023-04-20T09:57:53;101960.03;;;9.46;49.08
1480;BME280;732;51.698;4.886;2023-04-20T10:00:22;101957.75;;;9.51;49.12
1480;BME280;732;51.698;4.886;2023-04-20T10:02:50;101950.31;;;9.45;48.64
1480;BME280;732;51.698;4.886;2023-04-20T10:05:32;101917.25;;;9.17;48.05
1480;BME280;732;51.698;4.886;2023-04-20T10:08:02;101938.13;;;9.13;48.33
1480;BME280;732;51.698;4.886;2023-04-20T10:10:43;101922.56;;;8.99;48.41
1480;BME280;732;51.698;4.886;2023-04-20T10:13:14;101936.59;;;9.10;48.59
1480;BME280;732;51.698;4.886;2023-04-20T10:15:45;101947.84;;;9.14;49.06
1480;BME280;732;51.698;4.886;2023-04-20T10:18:19;101950.66;;;9.22;49.23
1480;BME280;732;51.698;4.886;2023-04-20T10:20:50;101928.31;;;9.04;48.56
1480;BME280;732;51.698;4.886;2023-04-20T10:23:20;101943.69;;;8.82;49.63
1480;BME280;732;51.698;4.886;2023-04-20T10:25:57;101934.59;;;8.65;49.65
1480;BME280;732;51.698;4.886;2023-04-20T10:28:40;101933.22;;;8.51;49.90
1480;BME280;732;51.698;4.886;2023-04-20T10:31:09;101899.72;;;8.27;50.29
1480;BME280;732;51.698;4.886;2023-04-20T10:33:53;101948.25;;;8.62;50.46
1480;BME280;732;51.698;4.886;2023-04-20T10:36:27;101903.09;;;8.29;50.28
1480;BME280;732;51.698;4.886;2023-04-20T10:38:58;101915.06;;;8.35;50.32
1480;BME280;732;51.698;4.886;2023-04-20T10:41:28;101922.94;;;8.56;50.36
1480;BME280;732;51.698;4.886;2023-04-20T10:44:06;101914.34;;;8.43;50.18
1480;BME280;732;51.698;4.886;2023-04-20T10:46:34;101950.25;;;8.50;50.82
1480;BME280;732;51.698;4.886;2023-04-20T10:49:03;101916.31;;;8.11;50.45
1480;BME280;732;51.698;4.886;2023-04-20T10:51:47;101924.91;;;8.05;51.24
1480;BME280;732;51.698;4.886;2023-04-20T10:54:18;101948.53;;;8.20;51.25
1480;BME280;732;51.698;4.886;2023-04-20T10:56:49;101953.47;;;8.24;51.51
1480;BME280;732;51.698;4.886;2023-04-20T10:59:21;101947.00;;;8.27;51.51
1480;BME280;732;51.698;4.886;2023-04-20T11:01:51;101945.31;;;8.45;51.49
1480;BME280;732;51.698;4.886;2023-04-20T11:04:28;101928.38;;;8.65;50.95
1480;BME280;732;51.698;4.886;2023-04-20T11:07:04;101919.22;;;8.67;50.64
1480;BME280;732;51.698;4.886;2023-04-20T11:09:34;101940.16;;;9.01;50.43
1480;BME280;732;51.698;4.886;2023-04-20T11:12:06;101932.38;;;9.46;50.03
1480;BME280;732;51.698;4.886;2023-04-20T11:14:37;101929.78;;;9.82;48.87
1480;BME280;732;51.698;4.886;2023-04-20T11:17:19;101931.13;;;9.96;47.54
1480;BME280;732;51.698;4.886;2023-04-20T11:19:49;101926.59;;;9.96;47.92
1480;BME280;732;51.698;4.886;2023-04-20T11:22:25;101907.34;;;9.83;47.27
1480;BME280;732;51.698;4.886;2023-04-20T11:25:02;101921.53;;;9.93;47.42
1480;BME280;732;51.698;4.886;2023-04-20T11:27:37;101912.81;;;9.91;46.71
1480;BME280;732;51.698;4.886;2023-04-20T11:30:09;101897.72;;;10.26;46.96
1480;BME280;732;51.698;4.886;2023-04-20T11:32:38;101902.50;;;10.59;46.80
1480;BME280;732;51.698;4.886;2023-04-20T11:35:08;101906.09;;;10.67;46.30
1480;BME280;732;51.698;4.886;2023-04-20T11:37:45;101892.03;;;11.00;46.10
1480;BME280;732;51.698;4.886;2023-04-20T11:40:14;101890.06;;;11.45;45.35
1480;BME280;732;51.698;4.886;2023-04-20T11:42:44;101887.78;;;11.66;44.56
1480;BME280;732;51.698;4.886;2023-04-20T11:45:13;101883.16;;;11.85;43.63
1480;BME280;732;51.698;4.886;2023-04-20T11:47:42;101871.53;;;11.84;43.00
1480;BME280;732;51.698;4.886;2023-04-20T11:50:14;101868.34;;;11.97;44.33
1480;BME280;732;51.698;4.886;2023-04-20T11:52:42;101866.31;;;12.41;43.84
1480;BME280;732;51.698;4.886;2023-04-20T11:55:10;101884.50;;;12.47;41.64
1480;BME280;732;51.698;4.886;2023-04-20T11:57:38;101880.09;;;12.54;42.12
1480;BME280;732;51.698;4.886;2023-04-20T12:00:09;101886.66;;;12.43;42.01
1480;BME280;732;51.698;4.886;2023-04-20T12:02:41;101865.31;;;12.42;42.52
1480;BME280;732;51.698;4.886;2023-04-20T12:05:10;101869.84;;;12.58;42.12
1480;BME280;732;51.698;4.886;2023-04-20T12:07:38;101874.38;;;12.74;42.73
1480;BME280;732;51.698;4.886;2023-04-20T12:10:08;101832.16;;;12.58;41.01
1480;BME280;732;51.698;4.886;2023-04-20T12:12:36;101871.81;;;12.80;40.60
1480;BME280;732;51.698;4.886;2023-04-20T12:15:08;101873.19;;;12.76;40.42
1480;BME280;732;51.698;4.886;2023-04-20T12:17:36;101875.59;;;12.46;40.43
1480;BME280;732;51.698;4.886;2023-04-20T12:20:07;101874.75;;;12.38;40.20
1480;BME280;732;51.698;4.886;2023-04-20T12:22:38;101862.94;;;12.47;41.10
1480;BME280;732;51.698;4.886;2023-04-20T12:25:07;101852.19;;;12.47;41.75
1480;BME280;732;51.698;4.886;2023-04-20T12:27:35;101861.09;;;12.56;41.29
1480;BME280;732;51.698;4.886;2023-04-20T12:30:05;101850.53;;;12.21;41.22
1480;BME280;732;51.698;4.886;2023-04-20T12:32:36;101858.94;;;12.01;41.29
1480;BME280;732;51.698;4.886;2023-04-20T12:35:06;101835.66;;;11.67;42.10
1480;BME280;732;51.698;4.886;2023-04-20T12:37:35;101850.81;;;11.60;42.48
1480;BME280;732;51.698;4.886;2023-04-20T12:40:05;101869.66;;;11.77;42.54
1480;BME280;732;51.698;4.886;2023-04-20T12:42:37;101862.13;;;11.89;42.21
1480;BME280;732;51.698;4.886;2023-04-20T12:45:07;101869.88;;;11.92;42.11
1480;BME280;732;51.698;4.886;2023-04-20T12:47:38;101868.09;;;11.66;41.72
1480;BME280;732;51.698;4.886;2023-04-20T12:50:07;101848.34;;;11.32;42.29
1480;BME280;732;51.698;4.886;2023-04-20T12:52:36;101852.28;;;11.03;42.97
1480;BME280;732;51.698;4.886;2023-04-20T12:55:06;101849.16;;;10.55;43.80
1480;BME280;732;51.698;4.886;2023-04-20T12:57:34;101861.19;;;10.51;44.37
1480;BME280;732;51.698;4.886;2023-04-20T13:00:05;101835.41;;;10.32;44.75
1480;BME280;732;51.698;4.886;2023-04-20T13:02:36;101858.03;;;10.30;44.06
1480;BME280;732;51.698;4.886;2023-04-20T13:05:07;101853.81;;;10.27;44.92
1480;BME280;732;51.698;4.886;2023-04-20T13:07:37;101856.13;;;10.22;44.67
1480;BME280;732;51.698;4.886;2023-04-20T13:10:07;101852.38;;;10.15;45.60
1480;BME280;732;51.698;4.886;2023-04-20T13:12:35;101854.81;;;10.26;45.06
1480;BME280;732;51.698;4.886;2023-04-20T13:15:06;101853.19;;;10.15;45.31
1480;BME280;732;51.698;4.886;2023-04-20T13:17:36;101851.00;;;10.11;45.80
1480;BME280;732;51.698;4.886;2023-04-20T13:20:06;101851.91;;;10.01;46.36
1480;BME280;732;51.698;4.886;2023-04-20T13:22:37;101854.66;;;9.55;47.00
1480;BME280;732;51.698;4.886;2023-04-20T13:25:21;101845.25;;;9.23;47.01
1480;BME280;732;51.698;4.886;2023-04-20T13:27:49;101848.09;;;9.12;48.00
1480;BME280;732;51.698;4.886;2023-04-20T13:30:17;101845.97;;;8.78;48.08
1480;BME280;732;51.698;4.886;2023-04-20T13:32:46;101848.88;;;8.47;49.02
1480;BME280;732;51.698;4.886;2023-04-20T13:35:16;101848.03;;;8.46;49.21
1480;BME280;732;51.698;4.886;2023-04-20T13:37:44;101808.25;;;8.34;49.63
1480;BME280;732;51.698;4.886;2023-04-20T13:40:13;101811.84;;;8.52;49.36
1480;BME280;732;51.698;4.886;2023-04-20T13:42:42;101841.63;;;8.77;49.61
1480;BME280;732;51.698;4.886;2023-04-20T13:45:10;101827.38;;;8.86;49.00
1480;BME280;732;51.698;4.886;2023-04-20T13:47:39;101824.47;;;9.07;48.43
1480;BME280;732;51.698;4.886;2023-04-20T13:50:09;101813.78;;;9.53;48.90
1480;BME280;732;51.698;4.886;2023-04-20T13:52:38;101824.34;;;9.91;47.37